Time;durP1;ratioP1;P1;durP2;ratioP2;P2;SDS_P1;SDS_P2;PMS_P1;PMS_P2;Temp;Humidity;BMP_temperature;BMP_pressure;BME280_temperature;BME280_humidity;BME280_pressure;Samples;Min_cycle;Max_cycle;Signal;HPM_P1;HPM_P2
2022/03/04 00:00:16;;;;;;;47.42;24.33;;;2.10;56.00;;;;;;4995194;28;20282;-74
2022/03/04 00:02:41;;;;;;;40.55;23.20;;;2.10;55.80;;;;;;4995083;28;20026;-74
2022/03/04 00:05:07;;;;;;;50.53;24.77;;;2.10;55.70;;;;;;4994936;28;20049;-74
2022/03/04 00:07:33;;;;;;;41.75;22.95;;;2.00;55.60;;;;;;4994867;28;20050;-74
2022/03/04 00:09:58;;;;;;;46.63;23.73;;;1.90;55.70;;;;;;4997049;28;20026;-76
2022/03/04 00:12:24;;;;;;;42.72;22.35;;;1.90;55.90;;;;;;4981153;28;20050;-75
2022/03/04 00:14:49;;;;;;;40.25;23.17;;;1.80;56.20;;;;;;4998844;28;20034;-76
2022/03/04 00:17:15;;;;;;;40.80;23.20;;;1.80;56.60;;;;;;4997563;28;20026;-75
2022/03/04 00:19:41;;;;;;;45.67;25.58;;;1.70;56.80;;;;;;4997938;28;20112;-75
2022/03/04 00:22:06;;;;;;;43.65;23.15;;;1.70;57.20;;;;;;4997604;28;20037;-75
2022/03/04 00:24:32;;;;;;;45.17;24.17;;;1.60;58.00;;;;;;4997420;28;20053;-74
2022/03/04 00:26:58;;;;;;;45.42;24.33;;;1.50;58.60;;;;;;4997162;28;20038;-75
2022/03/04 00:29:23;;;;;;;46.85;25.35;;;1.40;59.10;;;;;;4995901;28;20026;-74
2022/03/04 00:31:49;;;;;;;45.90;24.20;;;1.40;59.20;;;;;;4994360;28;20498;-73
2022/03/04 00:34:14;;;;;;;41.22;22.63;;;1.30;58.70;;;;;;4994428;28;20019;-73
2022/03/04 00:36:41;;;;;;;40.22;22.42;;;1.30;58.50;;;;;;4994366;28;20022;-74
2022/03/04 00:39:09;;;;;;;44.45;23.63;;;1.40;58.10;;;;;;4994358;28;20049;-73
2022/03/04 00:41:35;;;;;;;47.38;24.85;;;1.40;57.90;;;;;;4994270;28;20034;-72
2022/03/04 00:44:01;;;;;;;42.30;22.95;;;1.40;57.90;;;;;;4994044;28;20426;-73
2022/03/04 00:46:27;;;;;;;46.03;23.98;;;1.40;57.70;;;;;;4994176;28;20129;-73
2022/03/04 00:48:52;;;;;;;42.67;22.67;;;1.40;57.60;;;;;;4994143;28;20034;-73
2022/03/04 00:51:18;;;;;;;41.55;23.35;;;1.40;57.60;;;;;;4994017;28;20022;-73
2022/03/04 00:53:44;;;;;;;37.90;20.65;;;1.30;57.70;;;;;;4994014;28;20034;-73
2022/03/04 00:56:11;;;;;;;37.78;20.15;;;1.30;57.90;;;;;;4994118;28;20434;-73
2022/03/04 00:58:37;;;;;;;42.45;22.98;;;1.20;57.80;;;;;;4976517;28;20026;-74
2022/03/04 01:01:04;;;;;;;38.28;21.75;;;1.20;57.70;;;;;;4993501;28;20386;-73
2022/03/04 01:03:30;;;;;;;40.60;22.92;;;1.10;58.10;;;;;;4993475;28;20451;-73
2022/03/04 01:05:55;;;;;;;41.05;21.83;;;1.10;58.10;;;;;;4993750;28;20092;-73
2022/03/04 01:08:21;;;;;;;41.35;21.27;;;0.90;58.40;;;;;;4993329;28;20058;-72
2022/03/04 01:10:47;;;;;;;45.35;22.48;;;0.80;58.50;;;;;;4976242;28;20076;-73
2022/03/04 01:13:13;;;;;;;41.90;22.33;;;0.70;59.20;;;;;;4993722;28;20089;-72
2022/03/04 01:15:38;;;;;;;37.03;20.02;;;0.70;59.80;;;;;;4993712;28;20026;-72
2022/03/04 01:18:04;;;;;;;41.10;21.70;;;0.70;60.30;;;;;;4993763;28;20057;-74
2022/03/04 01:20:31;;;;;;;34.92;19.88;;;0.70;60.40;;;;;;4993675;28;20030;-75
2022/03/04 01:22:59;;;;;;;35.05;19.98;;;0.70;60.20;;;;;;4993588;28;20018;-74
2022/03/04 01:25:25;;;;;;;39.03;21.13;;;0.70;60.30;;;;;;4993478;28;20030;-72
2022/03/04 01:27:51;;;;;;;39.20;20.17;;;0.80;60.40;;;;;;4993533;28;20415;-72
2022/03/04 01:30:18;;;;;;;34.95;19.17;;;0.80;60.30;;;;;;4993515;28;20023;-73
2022/03/04 01:32:45;;;;;;;37.13;19.67;;;0.70;60.30;;;;;;4993427;28;20029;-72
2022/03/04 01:35:11;;;;;;;37.40;19.83;;;0.80;60.20;;;;;;4993465;28;20022;-74
2022/03/04 01:37:36;;;;;;;37.22;19.70;;;0.70;60.00;;;;;;4993488;28;20030;-74
2022/03/04 01:40:04;;;;;;;33.95;19.27;;;0.70;59.90;;;;;;4993574;28;20029;-74
2022/03/04 01:42:30;;;;;;;36.13;18.83;;;0.70;59.90;;;;;;4993286;28;20551;-72
2022/03/04 01:44:56;;;;;;;31.05;17.00;;;0.80;59.60;;;;;;4993143;28;20111;-71
2022/03/04 01:47:21;;;;;;;32.65;18.08;;;0.80;59.30;;;;;;4993375;28;20042;-72
2022/03/04 01:49:47;;;;;;;30.48;17.77;;;0.80;59.20;;;;;;4993457;28;20027;-72
2022/03/04 01:52:13;;;;;;;33.88;17.58;;;0.80;59.00;;;;;;4993420;28;20117;-72
2022/03/04 01:54:38;;;;;;;32.45;17.52;;;0.70;58.90;;;;;;4993282;28;20081;-73
2022/03/04 01:57:04;;;;;;;36.90;17.50;;;0.60;58.90;;;;;;4993282;28;20121;-73
2022/03/04 01:59:30;;;;;;;33.50;19.00;;;0.50;58.90;;;;;;4993392;28;20414;-73
2022/03/04 02:01:56;;;;;;;35.45;19.00;;;0.50;59.10;;;;;;4993028;28;20026;-72
2022/03/04 02:04:23;;;;;;;34.75;19.05;;;0.50;59.10;;;;;;4993068;28;20041;-73
2022/03/04 02:06:48;;;;;;;31.77;16.88;;;0.50;59.20;;;;;;4993080;28;20062;-72
2022/03/04 02:09:15;;;;;;;39.50;20.38;;;0.50;58.70;;;;;;4993306;28;20050;-72
2022/03/04 02:11:43;;;;;;;34.28;18.27;;;0.50;58.20;;;;;;4993078;28;20029;-72
2022/03/04 02:14:10;;;;;;;36.50;19.20;;;0.50;58.00;;;;;;4993064;28;20471;-72
2022/03/04 02:16:46;;;;;;;35.80;18.20;;;0.40;57.90;;;;;;4991753;28;20030;-73
2022/03/04 02:19:12;;;;;;;35.72;18.02;;;0.40;57.90;;;;;;4993751;28;20467;-72
2022/03/04 02:21:52;;;;;;;29.45;17.33;;;0.40;58.10;;;;;;4996650;28;20045;-72
2022/03/04 02:24:19;;;;;;;34.10;18.15;;;0.40;58.30;;;;;;4996897;28;20467;-73
2022/03/04 02:26:45;;;;;;;32.85;17.75;;;0.30;58.60;;;;;;4996578;28;20129;-73
2022/03/04 02:29:11;;;;;;;33.40;17.70;;;0.10;58.90;;;;;;4996711;28;20022;-73
2022/03/04 02:31:38;;;;;;;29.30;15.82;;;0.10;58.70;;;;;;4996662;28;20368;-73
2022/03/04 02:34:04;;;;;;;31.15;16.02;;;0.10;58.40;;;;;;4996523;28;20022;-73
2022/03/04 02:36:29;;;;;;;30.27;16.92;;;0.10;58.10;;;;;;4996631;28;20033;-73
2022/03/04 02:38:55;;;;;;;29.33;15.98;;;0.00;58.10;;;;;;4996557;28;20038;-73
2022/03/04 02:41:20;;;;;;;32.17;16.67;;;0.00;58.10;;;;;;4997066;28;20049;-75
2022/03/04 02:43:46;;;;;;;31.80;17.08;;;0.00;58.20;;;;;;5003453;28;20514;-73
2022/03/04 02:46:13;;;;;;;32.90;16.38;;;0.00;58.10;;;;;;4996683;28;20022;-73
2022/03/04 02:48:39;;;;;;;29.48;16.02;;;0.00;58.00;;;;;;4996416;28;20022;-73
2022/03/04 02:51:05;;;;;;;32.95;16.65;;;-0.10;58.50;;;;;;4996290;28;20537;-73
2022/03/04 02:53:30;;;;;;;27.50;15.57;;;-0.20;58.80;;;;;;4996340;28;20049;-74
2022/03/04 02:55:56;;;;;;;27.67;15.10;;;-0.10;59.20;;;;;;4996278;28;20048;-73
2022/03/04 02:58:22;;;;;;;26.88;15.02;;;-0.20;59.00;;;;;;4978653;28;20395;-73
2022/03/04 03:00:47;;;;;;;26.05;13.95;;;-0.20;59.20;;;;;;4996086;28;20427;-74
2022/03/04 03:03:13;;;;;;;29.02;14.95;;;-0.10;58.90;;;;;;4996109;28;20037;-74
2022/03/04 03:05:38;;;;;;;28.08;15.60;;;-0.20;58.70;;;;;;4996020;28;20023;-74
2022/03/04 03:08:04;;;;;;;28.33;14.30;;;-0.20;58.30;;;;;;4995701;28;20046;-73
2022/03/04 03:10:31;;;;;;;25.30;14.23;;;-0.20;58.10;;;;;;4996067;28;20467;-73
2022/03/04 03:12:57;;;;;;;24.95;13.23;;;-0.30;58.10;;;;;;4995856;28;20022;-73
2022/03/04 03:15:22;;;;;;;27.85;13.98;;;-0.30;57.90;;;;;;4978525;28;20022;-73
2022/03/04 03:17:48;;;;;;;27.13;14.73;;;-0.20;57.80;;;;;;4995922;28;20018;-74
2022/03/04 03:20:14;;;;;;;27.33;14.85;;;-0.20;57.50;;;;;;4995768;28;20030;-73
2022/03/04 03:22:39;;;;;;;28.88;14.60;;;-0.20;57.30;;;;;;4995605;28;20080;-73
2022/03/04 03:25:05;;;;;;;32.83;14.98;;;-0.30;57.70;;;;;;4995421;28;20129;-73
2022/03/04 03:27:31;;;;;;;28.17;15.48;;;-0.30;57.90;;;;;;4995542;28;20081;-73
2022/03/04 03:29:57;;;;;;;29.02;15.70;;;-0.40;58.10;;;;;;4995759;28;20414;-74
2022/03/04 03:32:22;;;;;;;29.98;15.32;;;-0.40;58.10;;;;;;4977393;28;20069;-74
2022/03/04 03:34:48;;;;;;;32.10;16.02;;;-0.40;58.40;;;;;;4995212;28;20039;-76
2022/03/04 03:37:14;;;;;;;28.60;16.15;;;-0.40;58.30;;;;;;4995380;28;20109;-75
2022/03/04 03:39:39;;;;;;;30.42;15.57;;;-0.40;58.60;;;;;;4995317;28;20478;-75
2022/03/04 03:42:06;;;;;;;32.13;16.48;;;-0.40;58.90;;;;;;4995277;28;20085;-74
2022/03/04 03:44:31;;;;;;;31.58;17.38;;;-0.40;59.00;;;;;;4977792;28;20074;-74
2022/03/04 03:46:57;;;;;;;30.90;16.52;;;-0.50;59.40;;;;;;4995134;28;20081;-74
2022/03/04 03:49:23;;;;;;;36.35;19.33;;;-0.50;59.60;;;;;;4995318;28;20441;-74
2022/03/04 03:51:49;;;;;;;31.80;17.45;;;-0.60;59.70;;;;;;4994963;28;20551;-74
2022/03/04 03:54:15;;;;;;;34.08;18.30;;;-0.70;60.20;;;;;;4995027;28;20478;-74
2022/03/04 03:56:41;;;;;;;37.35;19.48;;;-0.70;60.40;;;;;;4995108;28;20030;-74
2022/03/04 03:59:06;;;;;;;35.45;18.38;;;-0.70;60.60;;;;;;4994997;28;20168;-74
2022/03/04 04:01:32;;;;;;;33.83;18.10;;;-0.90;61.30;;;;;;4994658;28;20522;-74
2022/03/04 04:03:58;;;;;;;34.85;18.88;;;-0.80;61.80;;;;;;4994639;28;20109;-74
2022/03/04 04:06:23;;;;;;;35.75;19.20;;;-0.90;62.00;;;;;;4994806;28;20169;-75
2022/03/04 04:08:49;;;;;;;34.25;18.27;;;-1.00;61.70;;;;;;4977978;28;20049;-74
2022/03/04 04:11:14;;;;;;;39.53;19.92;;;-1.00;62.40;;;;;;4994665;28;20478;-73
2022/03/04 04:13:40;;;;;;;34.92;18.15;;;-1.00;62.70;;;;;;4994676;28;20123;-74
2022/03/04 04:16:05;;;;;;;38.05;20.30;;;-1.00;62.40;;;;;;4994757;28;20033;-74
2022/03/04 04:18:32;;;;;;;33.25;18.45;;;-1.00;62.20;;;;;;4994825;28;20057;-73
2022/03/04 04:20:58;;;;;;;40.00;21.27;;;-0.90;62.50;;;;;;4994548;28;20030;-74
2022/03/04 04:23:23;;;;;;;39.80;19.80;;;-0.90;62.10;;;;;;4994641;28;20084;-74
2022/03/04 04:25:49;;;;;;;38.15;19.58;;;-0.90;62.10;;;;;;4977080;28;20081;-74
2022/03/04 04:28:14;;;;;;;35.35;18.60;;;-0.90;61.90;;;;;;4994357;28;20113;-74
2022/03/04 04:30:40;;;;;;;37.05;18.50;;;-0.80;61.70;;;;;;4994423;28;20026;-74
2022/03/04 04:33:05;;;;;;;36.17;19.10;;;-0.80;61.50;;;;;;4994388;28;20084;-74
2022/03/04 04:35:31;;;;;;;35.40;19.00;;;-0.80;61.40;;;;;;4994249;28;20102;-74
2022/03/04 04:37:56;;;;;;;33.95;18.13;;;-0.70;61.40;;;;;;4976995;28;20045;-74
2022/03/04 04:40:22;;;;;;;33.97;17.35;;;-0.80;61.20;;;;;;4994541;28;20026;-74
2022/03/04 04:42:47;;;;;;;36.03;18.83;;;-0.80;61.20;;;;;;4993243;28;20025;-74
2022/03/04 04:45:13;;;;;;;37.50;19.58;;;-0.90;61.50;;;;;;4994591;28;20054;-74
2022/03/04 04:47:39;;;;;;;35.38;18.17;;;-0.90;62.60;;;;;;4976625;28;20049;-74
2022/03/04 04:50:05;;;;;;;40.95;20.13;;;-0.80;61.80;;;;;;4994407;28;20030;-74
2022/03/04 04:52:31;;;;;;;35.45;17.92;;;-0.80;61.50;;;;;;4994512;28;20534;-75
2022/03/04 04:54:56;;;;;;;36.65;18.23;;;-0.80;61.50;;;;;;4999444;28;20060;-74
2022/03/04 04:57:22;;;;;;;36.65;19.02;;;-0.80;61.20;;;;;;4994037;28;20026;-74
2022/03/04 04:59:48;;;;;;;39.25;18.73;;;-0.90;61.30;;;;;;4993687;28;20498;-74
2022/03/04 05:02:13;;;;;;;40.80;18.88;;;-1.00;61.40;;;;;;4993763;28;20034;-74
2022/03/04 05:04:39;;;;;;;46.53;20.45;;;-1.00;61.80;;;;;;4993832;28;20029;-75
2022/03/04 05:07:05;;;;;;;39.88;19.85;;;-1.00;62.20;;;;;;4993565;28;20089;-74
2022/03/04 05:09:30;;;;;;;40.45;18.83;;;-1.10;62.80;;;;;;4993798;28;20027;-73
2022/03/04 05:11:56;;;;;;;42.33;20.15;;;-1.20;63.10;;;;;;4993621;28;20110;-73
2022/03/04 05:14:22;;;;;;;40.95;20.73;;;-1.20;63.20;;;;;;4976125;28;20118;-73
2022/03/04 05:16:47;;;;;;;42.47;19.75;;;-1.10;63.30;;;;;;4993670;28;20109;-73
2022/03/04 05:19:13;;;;;;;43.40;20.83;;;-1.20;63.30;;;;;;4993634;28;20154;-74
2022/03/04 05:21:38;;;;;;;41.22;20.73;;;-1.20;63.40;;;;;;4993503;28;20034;-73
2022/03/04 05:24:06;;;;;;;40.88;19.25;;;-1.30;63.50;;;;;;4993617;28;20144;-74
2022/03/04 05:26:37;;;;;;;39.22;19.98;;;-1.30;63.60;;;;;;4993316;28;20035;-73
2022/03/04 05:29:06;;;;;;;35.92;18.42;;;-1.30;63.60;;;;;;4993312;28;20019;-74
2022/03/04 05:31:31;;;;;;;39.17;20.65;;;-1.30;64.40;;;;;;4993505;28;20022;-73
2022/03/04 05:33:57;;;;;;;38.53;19.30;;;-1.40;63.90;;;;;;4993580;28;20493;-73
2022/03/04 05:36:23;;;;;;;47.42;24.05;;;-1.40;63.90;;;;;;4993463;28;20644;-73
2022/03/04 05:38:50;;;;;;;52.65;26.40;;;-1.30;63.70;;;;;;4993205;28;20058;-73
2022/03/04 05:41:17;;;;;;;70.18;35.67;;;-1.30;63.50;;;;;;4975937;28;20474;-73
2022/03/04 05:43:43;;;;;;;74.20;33.65;;;-1.40;63.50;;;;;;4993009;28;20088;-73
2022/03/04 05:46:09;;;;;;;72.72;32.70;;;-1.40;63.50;;;;;;4993341;28;20033;-73
2022/03/04 05:48:35;;;;;;;55.92;27.17;;;-1.30;63.80;;;;;;4993380;28;20101;-73
2022/03/04 05:51:00;;;;;;;44.75;22.05;;;-1.30;63.40;;;;;;4993336;28;20450;-74
2022/03/04 05:53:26;;;;;;;42.85;20.63;;;-1.40;63.20;;;;;;4993210;28;20026;-73
2022/03/04 05:55:52;;;;;;;46.90;22.00;;;-1.40;63.20;;;;;;4996581;28;20026;-74
2022/03/04 05:58:18;;;;;;;47.00;22.50;;;-1.30;63.20;;;;;;4979654;28;20429;-74
2022/03/04 06:00:43;;;;;;;42.90;20.98;;;-1.20;62.90;;;;;;4996964;28;20049;-74
2022/03/04 06:03:09;;;;;;;43.50;22.17;;;-1.20;62.80;;;;;;4997196;28;20023;-74
2022/03/04 06:05:35;;;;;;;40.38;21.48;;;-1.10;62.60;;;;;;4996906;28;20479;-74
2022/03/04 06:08:00;;;;;;;37.90;19.38;;;-1.10;62.20;;;;;;4996894;28;20171;-74
2022/03/04 06:10:26;;;;;;;47.22;21.05;;;-1.10;61.90;;;;;;4997067;28;20471;-74
2022/03/04 06:12:52;;;;;;;37.45;18.60;;;-1.50;62.30;;;;;;4997093;28;20026;-74
2022/03/04 06:15:18;;;;;;;43.38;21.27;;;-1.50;62.60;;;;;;4997085;28;20022;-74
2022/03/04 06:17:51;;;;;;;41.78;20.42;;;-1.50;62.90;;;;;;4997111;28;20034;-74
2022/03/04 06:20:17;;;;;;;37.78;19.67;;;-1.50;63.00;;;;;;4997477;28;20478;-75
2022/03/04 06:22:44;;;;;;;39.22;20.65;;;-1.50;63.10;;;;;;5000699;28;20071;-75
2022/03/04 06:25:11;;;;;;;38.00;19.90;;;-1.40;63.30;;;;;;4999742;28;20026;-75
2022/03/04 06:27:52;;;;;;;41.63;20.70;;;-1.40;63.00;;;;;;4998722;28;20061;-74
2022/03/04 06:30:18;;;;;;;40.97;19.70;;;-1.30;62.80;;;;;;4998208;28;20101;-75
2022/03/04 06:32:43;;;;;;;34.08;17.80;;;-1.40;62.50;;;;;;5005343;28;20434;-74
2022/03/04 06:35:09;;;;;;;40.03;20.15;;;-1.30;62.70;;;;;;5012698;28;20026;-74
2022/03/04 06:37:34;;;;;;;44.08;20.83;;;-1.30;62.50;;;;;;5015496;28;20026;-74
2022/03/04 06:40:00;;;;;;;59.47;27.67;;;-1.20;62.00;;;;;;5012992;28;20109;-74
2022/03/04 06:42:26;;;;;;;76.88;32.80;;;-1.10;61.60;;;;;;5014042;28;20028;-74
2022/03/04 06:44:51;;;;;;;83.15;35.42;;;-1.10;61.40;;;;;;5019673;28;20094;-74
2022/03/04 06:47:17;;;;;;;84.35;35.40;;;-1.20;61.40;;;;;;5017779;28;20053;-74
2022/03/04 06:49:42;;;;;;;99.65;38.08;;;-1.10;61.50;;;;;;5019173;28;20029;-74
2022/03/04 06:52:08;;;;;;;117.63;48.08;;;-1.00;61.30;;;;;;5012651;28;20030;-76
2022/03/04 06:54:36;;;;;;;123.45;48.47;;;-1.00;61.10;;;;;;5004787;28;20033;-77
2022/03/04 06:57:02;;;;;;;115.05;46.15;;;-1.00;60.80;;;;;;5001258;28;20018;-75
2022/03/04 06:59:28;;;;;;;114.72;43.63;;;-0.90;60.60;;;;;;4996681;28;20072;-74
2022/03/04 07:01:53;;;;;;;127.63;43.88;;;-0.70;60.40;;;;;;4996159;28;20034;-75
2022/03/04 07:04:19;;;;;;;98.32;38.80;;;-0.70;60.10;;;;;;4995933;28;20043;-76
2022/03/04 07:06:45;;;;;;;87.38;34.45;;;-0.50;59.90;;;;;;4993520;28;20090;-75
2022/03/04 07:09:10;;;;;;;70.15;33.25;;;-0.50;59.40;;;;;;4995598;28;20018;-74
2022/03/04 07:11:36;;;;;;;65.15;29.85;;;-0.30;59.20;;;;;;4995736;28;20022;-76
2022/03/04 07:14:02;;;;;;;72.22;30.15;;;-0.20;59.20;;;;;;4995593;28;20133;-74
2022/03/04 07:16:27;;;;;;;65.82;29.20;;;0.00;59.50;;;;;;4995741;28;20100;-74
2022/03/04 07:18:53;;;;;;;68.65;28.83;;;0.10;58.90;;;;;;4995517;28;20475;-74
2022/03/04 07:21:19;;;;;;;62.08;29.38;;;0.20;58.10;;;;;;4995329;28;20022;-74
2022/03/04 07:23:44;;;;;;;59.83;26.75;;;0.40;57.70;;;;;;4995471;28;20030;-73
2022/03/04 07:26:12;;;;;;;57.58;26.77;;;0.50;57.30;;;;;;4995388;28;20418;-74
2022/03/04 07:28:37;;;;;;;56.47;25.38;;;0.60;57.10;;;;;;4995315;28;20031;-74
2022/03/04 07:31:03;;;;;;;59.38;27.05;;;0.70;56.50;;;;;;4995162;28;20073;-74
2022/03/04 07:33:29;;;;;;;50.05;25.35;;;0.80;55.90;;;;;;4977649;28;20030;-74
2022/03/04 07:35:55;;;;;;;55.70;24.98;;;0.90;55.60;;;;;;4995464;28;20079;-74
2022/03/04 07:38:20;;;;;;;52.30;25.10;;;1.00;55.10;;;;;;4995187;28;20030;-73
2022/03/04 07:40:47;;;;;;;44.67;23.35;;;1.10;54.70;;;;;;4995064;28;20022;-73
2022/03/04 07:43:12;;;;;;;68.03;28.30;;;1.20;54.30;;;;;;4994892;28;20058;-74
2022/03/04 07:45:38;;;;;;;49.03;24.23;;;1.30;53.70;;;;;;4994818;28;20074;-74
2022/03/04 07:48:04;;;;;;;46.03;22.50;;;1.30;53.10;;;;;;4994810;28;20518;-73
2022/03/04 07:50:29;;;;;;;48.85;23.60;;;1.30;52.60;;;;;;4995024;28;20029;-74
2022/03/04 07:52:55;;;;;;;52.78;24.83;;;1.40;52.80;;;;;;4994802;28;20069;-74
2022/03/04 07:55:21;;;;;;;46.75;22.95;;;1.40;52.30;;;;;;4994798;28;20146;-73
2022/03/04 07:57:46;;;;;;;49.83;24.15;;;1.40;52.40;;;;;;4994494;28;20109;-73
2022/03/04 08:00:14;;;;;;;44.65;22.45;;;1.50;52.40;;;;;;4994818;28;20019;-74
2022/03/04 08:02:41;;;;;;;48.30;24.38;;;1.60;52.20;;;;;;4994368;28;20112;-73
2022/03/04 08:05:10;;;;;;;43.08;23.10;;;1.70;52.00;;;;;;4994691;28;20102;-74
2022/03/04 08:07:37;;;;;;;44.95;24.02;;;1.80;51.70;;;;;;4994074;28;20063;-73
2022/03/04 08:10:07;;;;;;;51.05;26.08;;;1.90;51.90;;;;;;4994379;28;20109;-74
2022/03/04 08:12:33;;;;;;;50.33;26.70;;;1.90;51.80;;;;;;4994450;28;20022;-74
2022/03/04 08:14:59;;;;;;;50.60;25.33;;;2.00;52.10;;;;;;4994309;28;20517;-73
2022/03/04 08:17:24;;;;;;;51.08;26.92;;;2.00;52.60;;;;;;4994267;28;20023;-74
2022/03/04 08:19:50;;;;;;;47.10;23.10;;;2.00;53.20;;;;;;4994253;28;20245;-74
2022/03/04 08:22:15;;;;;;;42.60;21.45;;;2.10;52.90;;;;;;4994409;28;20068;-73
2022/03/04 08:24:41;;;;;;;37.13;21.02;;;2.20;52.60;;;;;;4994321;28;20062;-74
2022/03/04 08:27:07;;;;;;;42.13;21.98;;;2.40;52.40;;;;;;4994072;28;20038;-74
2022/03/04 08:29:32;;;;;;;45.42;22.75;;;2.70;52.30;;;;;;4994330;28;20021;-74
2022/03/04 08:31:58;;;;;;;40.70;21.67;;;2.80;51.30;;;;;;4994227;28;20084;-76
2022/03/04 08:34:23;;;;;;;45.65;18.13;;;3.00;53.20;;;;;;4994252;28;20022;-75
2022/03/04 08:36:49;;;;;;;38.75;20.60;;;3.40;66.00;;;;;;4993929;28;20031;-74
2022/03/04 08:39:16;;;;;;;36.17;20.15;;;4.30;70.30;;;;;;4993595;28;20018;-74
2022/03/04 08:41:42;;;;;;;36.42;19.58;;;4.90;62.40;;;;;;4993771;28;20042;-73
2022/03/04 08:44:08;;;;;;;37.60;19.77;;;5.50;57.90;;;;;;4993775;28;20046;-73
2022/03/04 08:46:36;;;;;;;34.25;19.33;;;6.10;55.40;;;;;;4993550;28;20133;-74
2022/03/04 08:49:02;;;;;;;35.78;19.27;;;6.70;51.10;;;;;;4993780;28;20038;-75
2022/03/04 08:51:28;;;;;;;57.55;22.58;;;7.10;47.60;;;;;;4993649;28;20061;-76
2022/03/04 08:53:54;;;;;;;34.83;19.58;;;7.40;44.60;;;;;;4993796;28;20030;-72
2022/03/04 08:56:20;;;;;;;41.17;19.80;;;7.70;44.70;;;;;;4993684;28;20494;-73
2022/03/04 08:58:46;;;;;;;37.25;19.38;;;8.00;41.70;;;;;;4991620;28;20080;-73
2022/03/04 09:01:11;;;;;;;28.27;18.77;;;8.10;40.20;;;;;;4993520;28;20074;-73
2022/03/04 09:03:37;;;;;;;31.38;18.23;;;8.30;40.30;;;;;;4993338;28;20375;-73
2022/03/04 09:06:03;;;;;;;35.20;19.23;;;8.20;38.00;;;;;;4993313;28;20053;-75
2022/03/04 09:08:28;;;;;;;32.55;20.13;;;8.50;38.00;;;;;;4993233;28;20034;-75
2022/03/04 09:10:54;;;;;;;30.75;18.13;;;8.80;36.60;;;;;;4993289;28;20026;-73
2022/03/04 09:13:20;;;;;;;31.55;17.73;;;8.90;34.50;;;;;;4993425;28;20037;-76
2022/03/04 09:15:46;;;;;;;28.70;17.73;;;8.50;31.20;;;;;;4993218;28;20022;-73
2022/03/04 09:18:11;;;;;;;34.35;19.10;;;8.00;31.40;;;;;;4995166;28;20029;-75
2022/03/04 09:20:37;;;;;;;32.17;18.13;;;7.60;32.70;;;;;;4994424;28;20462;-74
2022/03/04 09:23:03;;;;;;;30.10;18.13;;;7.40;33.70;;;;;;5012576;28;20033;-74
2022/03/04 09:25:28;;;;;;;32.95;20.27;;;7.40;35.40;;;;;;5012891;28;20391;-73
2022/03/04 09:27:54;;;;;;;31.35;19.77;;;7.40;35.30;;;;;;5012407;28;20080;-73
2022/03/04 09:30:20;;;;;;;27.80;18.17;;;7.60;35.40;;;;;;5011882;28;20014;-75
2022/03/04 09:32:45;;;;;;;31.85;20.20;;;7.60;35.60;;;;;;5012570;28;20053;-73
2022/03/04 09:35:11;;;;;;;35.42;19.58;;;7.60;35.80;;;;;;5012806;28;20172;-73
2022/03/04 09:37:38;;;;;;;32.60;19.83;;;7.80;36.20;;;;;;5012331;28;20554;-73
2022/03/04 09:40:04;;;;;;;40.55;23.13;;;7.90;36.40;;;;;;5012562;28;20038;-74
2022/03/04 09:42:32;;;;;;;41.05;23.88;;;7.90;35.90;;;;;;5012663;28;20030;-74
2022/03/04 09:44:57;;;;;;;32.53;20.38;;;7.90;36.10;;;;;;5012488;28;20132;-74
2022/03/04 09:47:23;;;;;;;30.40;20.08;;;8.00;36.10;;;;;;5012549;28;20137;-74
2022/03/04 09:49:51;;;;;;;38.35;21.48;;;8.30;35.70;;;;;;5012510;28;20084;-76
2022/03/04 09:52:17;;;;;;;36.15;21.85;;;8.10;36.30;;;;;;5012567;28;20053;-76
2022/03/04 09:54:49;;;;;;;34.97;21.45;;;8.00;36.70;;;;;;5012380;28;20065;-75
2022/03/04 09:57:15;;;;;;;37.78;20.95;;;7.90;37.00;;;;;;5012311;28;20029;-75
2022/03/04 09:59:41;;;;;;;33.53;20.40;;;7.80;37.20;;;;;;5012261;28;20034;-75
2022/03/04 10:02:07;;;;;;;37.75;20.08;;;8.10;37.50;;;;;;5012445;28;20032;-75
2022/03/04 10:04:33;;;;;;;34.97;21.58;;;8.10;37.00;;;;;;5012598;28;20466;-75
2022/03/04 10:07:11;;;;;;;32.72;19.33;;;8.40;35.40;;;;;;5012287;28;20053;-75
2022/03/04 10:09:47;;;;;;;34.53;20.23;;;8.50;34.60;;;;;;5012326;28;20033;-75
2022/03/04 10:12:17;;;;;;;37.08;21.05;;;8.50;34.70;;;;;;4995053;28;20053;-75
2022/03/04 10:14:58;;;;;;;39.15;21.40;;;8.60;34.80;;;;;;5012488;28;20492;-74
2022/03/04 10:17:25;;;;;;;32.38;18.13;;;8.70;34.50;;;;;;4994521;28;20037;-75
2022/03/04 10:19:59;;;;;;;31.63;19.13;;;8.70;33.90;;;;;;4994719;28;20026;-75
2022/03/04 10:22:42;;;;;;;34.90;20.45;;;8.90;33.30;;;;;;4994777;28;20430;-75
2022/03/04 10:25:25;;;;;;;33.22;19.88;;;8.90;32.50;;;;;;4995403;28;20022;-75
2022/03/04 10:27:52;;;;;;;34.08;18.88;;;8.50;33.40;;;;;;4995418;28;20041;-75
2022/03/04 10:30:30;;;;;;;30.23;19.48;;;8.60;33.30;;;;;;4995498;28;20481;-76
2022/03/04 10:33:09;;;;;;;33.42;19.48;;;8.70;32.90;;;;;;4994934;28;20033;-75
2022/03/04 10:35:36;;;;;;;31.77;19.58;;;8.00;33.40;;;;;;4996148;28;20096;-76
2022/03/04 10:38:04;;;;;;;31.85;19.30;;;8.20;33.80;;;;;;4996250;28;20482;-75
2022/03/04 10:40:43;;;;;;;35.72;19.35;;;8.50;33.40;;;;;;4996134;28;20029;-75
2022/03/04 10:43:11;;;;;;;29.48;18.90;;;8.80;32.30;;;;;;4998400;28;20486;-75
2022/03/04 10:45:43;;;;;;;35.95;19.33;;;9.00;31.70;;;;;;4998038;28;20132;-75
2022/03/04 10:48:11;;;;;;;30.27;18.75;;;8.90;31.60;;;;;;4997942;28;20041;-75
2022/03/04 10:50:51;;;;;;;34.90;20.27;;;8.40;31.60;;;;;;4998151;28;20048;-76
2022/03/04 10:53:26;;;;;;;32.33;19.17;;;8.60;31.50;;;;;;4997994;28;20075;-76
2022/03/04 10:56:00;;;;;;;33.00;18.95;;;8.80;31.90;;;;;;4997982;28;20391;-76
2022/03/04 10:58:29;;;;;;;36.28;18.20;;;9.20;31.30;;;;;;4997830;28;20486;-77
2022/03/04 11:01:02;;;;;;;32.15;19.02;;;9.30;30.60;;;;;;4997671;28;20065;-77
2022/03/04 11:03:30;;;;;;;30.48;18.27;;;9.60;30.40;;;;;;4998102;28;20084;-76
2022/03/04 11:06:00;;;;;;;36.38;19.13;;;9.20;28.80;;;;;;4997092;28;20096;-76
2022/03/04 11:08:26;;;;;;;33.38;18.45;;;8.70;30.20;;;;;;4997488;28;20042;-76
2022/03/04 11:10:53;;;;;;;29.17;17.13;;;9.20;30.90;;;;;;4997605;28;20473;-75
2022/03/04 11:13:20;;;;;;;28.55;15.50;;;9.80;29.70;;;;;;4997513;28;20532;-76
2022/03/04 11:15:47;;;;;;;24.33;14.70;;;10.30;27.60;;;;;;4997208;28;20068;-76
2022/03/04 11:18:16;;;;;;;29.95;15.77;;;10.50;25.80;;;;;;4997210;28;20026;-77
2022/03/04 11:20:44;;;;;;;27.25;15.63;;;11.10;25.50;;;;;;4996863;28;20133;-77
2022/03/04 11:23:17;;;;;;;24.27;15.93;;;11.50;23.70;;;;;;4996731;28;20451;-77
2022/03/04 11:25:45;;;;;;;22.63;15.20;;;11.60;22.30;;;;;;4997789;28;20065;-77
2022/03/04 11:28:18;;;;;;;23.70;14.80;;;11.40;22.30;;;;;;4997130;28;20537;-76
2022/03/04 11:30:56;;;;;;;21.58;13.73;;;11.70;23.10;;;;;;4996927;28;20033;-77
2022/03/04 11:33:31;;;;;;;26.17;14.32;;;12.10;21.80;;;;;;4997113;28;20026;-76
2022/03/04 11:36:04;;;;;;;28.77;15.60;;;12.40;21.00;;;;;;4996784;28;20022;-74
2022/03/04 11:38:48;;;;;;;23.60;14.70;;;12.70;20.90;;;;;;4996329;28;20040;-75
2022/03/04 11:41:14;;;;;;;25.25;16.20;;;13.00;20.00;;;;;;4996926;28;20033;-77
2022/03/04 11:43:52;;;;;;;24.80;15.98;;;12.90;19.90;;;;;;5014761;28;20050;-74
2022/03/04 11:46:29;;;;;;;26.05;16.75;;;12.80;19.90;;;;;;4996912;28;20117;-75
2022/03/04 11:49:34;;;;;;;23.90;14.77;;;12.70;20.00;;;;;;4997119;28;20505;-76
2022/03/04 11:52:11;;;;;;;27.45;16.42;;;12.50;19.40;;;;;;4996468;28;20481;-75
2022/03/04 11:54:41;;;;;;;28.83;16.48;;;12.60;19.70;;;;;;4996824;28;20025;-77
2022/03/04 11:57:28;;;;;;;24.10;15.57;;;12.40;19.50;;;;;;4996832;28;20454;-76
2022/03/04 11:59:53;;;;;;;24.80;15.43;;;12.70;19.60;;;;;;4996796;28;20026;-74
2022/03/04 12:02:38;;;;;;;25.25;16.42;;;13.10;19.50;;;;;;4996827;28;20419;-75
2022/03/04 12:05:13;;;;;;;25.17;16.25;;;13.50;19.40;;;;;;4996748;28;20026;-75
2022/03/04 12:07:50;;;;;;;22.33;15.30;;;13.70;18.50;;;;;;4996533;28;20040;-76
2022/03/04 12:10:24;;;;;;;26.17;16.42;;;13.90;18.30;;;;;;4996829;28;20025;-75
2022/03/04 12:12:58;;;;;;;28.90;16.27;;;14.20;18.20;;;;;;4996274;28;20026;-75
2022/03/04 12:15:24;;;;;;;22.02;14.75;;;14.20;17.70;;;;;;4996176;28;20177;-75
2022/03/04 12:18:07;;;;;;;25.90;17.20;;;13.70;17.40;;;;;;4996329;28;20112;-76
2022/03/04 12:20:39;;;;;;;22.70;15.32;;;13.00;17.80;;;;;;4996435;28;20371;-75
2022/03/04 12:23:39;;;;;;;22.88;15.02;;;12.60;18.30;;;;;;4996548;28;20026;-75
2022/03/04 12:26:05;;;;;;;23.27;15.15;;;12.70;19.00;;;;;;4998456;28;20042;-75
2022/03/04 12:28:44;;;;;;;22.52;14.90;;;13.00;19.10;;;;;;4996204;28;20057;-76
2022/03/04 12:31:12;;;;;;;21.88;14.48;;;13.50;18.50;;;;;;4996456;28;20430;-76
2022/03/04 12:33:40;;;;;;;25.10;15.20;;;13.90;17.60;;;;;;4996315;28;20026;-75